createdAt,value
2019-01-20T00:02:51.775Z,100499.03
2019-01-20T00:07:54.687Z,100498.83
2019-01-20T00:12:57.427Z,100498.06
2019-01-20T00:17:59.384Z,100494.30
2019-01-20T00:23:01.295Z,100502.88
2019-01-20T00:28:03.405Z,100494.45
2019-01-20T00:33:05.426Z,100489.91
2019-01-20T00:38:07.360Z,100488.88
2019-01-20T00:43:09.509Z,100487.11
2019-01-20T00:48:11.556Z,100485.95
2019-01-20T00:53:13.591Z,100483.14
2019-01-20T00:58:15.698Z,100484.45
2019-01-20T01:03:17.801Z,100474.80
2019-01-20T01:08:19.827Z,100471.89
2019-01-20T01:13:22.354Z,100477.91
2019-01-20T01:18:24.375Z,100472.41
2019-01-20T01:23:26.364Z,100473.06
2019-01-20T01:28:28.292Z,100473.83
2019-01-20T01:33:31.287Z,100477.63
2019-01-20T01:38:33.308Z,100487.56
2019-01-20T01:43:35.211Z,100497.21
2019-01-20T01:48:37.377Z,100489.09
2019-01-20T01:53:39.406Z,100486.09
2019-01-20T01:58:41.455Z,100489.09
2019-01-20T02:03:43.473Z,100487.16
2019-01-20T02:08:45.502Z,100485.16
2019-01-20T02:13:47.470Z,100473.84
2019-01-20T02:18:49.377Z,100477.16
2019-01-20T02:23:51.422Z,100474.48
2019-01-20T02:28:53.313Z,100475.34
2019-01-20T02:33:55.235Z,100473.96
2019-01-20T02:38:57.256Z,100472.98
2019-01-20T02:43:59.326Z,100478.37
2019-01-20T02:49:02.347Z,100482.66
2019-01-20T02:54:04.376Z,100484.89
2019-01-20T02:59:06.512Z,100487.44
2019-01-20T03:04:08.537Z,100487.61
2019-01-20T03:09:10.551Z,100482.46
2019-01-20T03:14:12.607Z,100476.03
2019-01-20T03:19:14.751Z,100473.52
2019-01-20T03:24:16.867Z,100470.93
2019-01-20T03:29:18.774Z,100469.80
2019-01-20T03:34:20.695Z,100477.77
2019-01-20T03:39:22.640Z,100465.17
2019-01-20T03:44:24.552Z,100463.64
2019-01-20T03:49:26.538Z,100466.44
2019-01-20T03:54:29.844Z,100460.86
2019-01-20T03:59:31.916Z,100457.02
2019-01-20T04:04:33.817Z,100454.31
2019-01-20T04:09:35.752Z,100459.54
2019-01-20T04:14:37.717Z,100456.47
2019-01-20T04:19:39.866Z,100465.71
2019-01-20T04:24:43.288Z,100465.50
2019-01-20T04:29:45.204Z,100463.41
2019-01-20T04:34:47.112Z,100468.21
2019-01-20T04:39:49.302Z,100462.53
2019-01-20T04:44:51.427Z,100466.22
2019-01-20T04:49:53.372Z,100467.67
2019-01-20T04:54:55.387Z,100462.53
2019-01-20T04:59:57.524Z,100471.11
2019-01-20T05:04:59.429Z,100469.06
2019-01-20T05:10:04.487Z,100472.34
2019-01-20T05:15:10.190Z,100470.39
2019-01-20T05:20:12.533Z,100468.14
2019-01-20T05:25:14.945Z,100471.70
2019-01-20T05:30:19.369Z,100473.27
2019-01-20T05:35:21.384Z,100472.70
2019-01-20T05:40:24.726Z,100475.41
2019-01-20T05:45:26.742Z,100477.56
2019-01-20T05:50:28.789Z,100479.62
2019-01-20T05:55:30.704Z,100485.20
2019-01-20T06:00:33.287Z,100485.28
2019-01-20T06:05:36.085Z,100496.81
2019-01-20T06:10:38.028Z,100485.92
2019-01-20T06:15:40.013Z,100489.70
2019-01-20T06:20:42.014Z,100491.90
2019-01-20T06:25:43.943Z,100493.54
2019-01-20T06:30:45.871Z,100490.25
2019-01-20T06:35:47.919Z,100490.66
2019-01-20T06:40:49.846Z,100500.17
2019-01-20T06:45:51.821Z,100494.04
2019-01-20T06:50:53.877Z,100502.78
2019-01-20T06:55:55.779Z,100509.03
2019-01-20T07:00:57.762Z,100513.68
2019-01-20T07:05:59.896Z,100521.34
2019-01-20T07:11:01.852Z,100524.25
2019-01-20T07:16:04.955Z,100531.59
2019-01-20T07:21:06.857Z,100535.72
2019-01-20T07:26:08.766Z,100542.88
2019-01-20T07:31:10.714Z,100547.33
2019-01-20T07:36:12.639Z,100551.12
2019-01-20T07:41:14.579Z,100556.46
2019-01-20T07:46:16.638Z,100560.77
2019-01-20T07:51:18.704Z,100562.91
2019-01-20T07:56:20.721Z,100562.08
2019-01-20T08:01:22.786Z,100564.98
2019-01-20T08:06:24.715Z,100578.96
2019-01-20T08:11:26.619Z,100577.41
2019-01-20T08:16:28.763Z,100580.66
2019-01-20T08:21:31.139Z,100583.53
2019-01-20T08:26:33.037Z,100587.34
2019-01-20T08:31:34.950Z,100593.81
2019-01-20T08:36:36.878Z,100599.13
2019-01-20T08:41:38.861Z,100598.52
2019-01-20T08:46:55.164Z,100601.72
2019-01-20T08:51:57.133Z,100614.95
2019-01-20T08:56:59.037Z,100612.66
2019-01-20T09:02:00.979Z,100605.95
2019-01-20T09:07:03.091Z,100613.33
2019-01-20T09:12:05.089Z,100612.08
2019-01-20T09:17:07.170Z,100611.09
2019-01-20T09:22:09.175Z,100617.63
2019-01-20T09:27:11.285Z,100623.44
2019-01-20T09:32:13.491Z,100624.16
2019-01-20T09:37:15.417Z,100629.68
2019-01-20T09:42:17.353Z,100626.92
2019-01-20T09:47:19.315Z,100627.80
2019-01-20T09:52:21.261Z,100631.98
2019-01-20T09:57:23.579Z,100638.38
2019-01-20T10:02:25.496Z,100645.48
2019-01-20T10:07:27.432Z,100642.09
2019-01-20T10:12:29.348Z,100640.50
2019-01-20T10:17:31.382Z,100641.45
2019-01-20T10:22:33.396Z,100641.16
2019-01-20T10:27:35.640Z,100641.63
2019-01-20T10:32:37.947Z,100649.33
2019-01-20T10:37:40.254Z,100656.17
2019-01-20T10:42:42.259Z,100653.75
2019-01-20T10:47:44.241Z,100652.58
2019-01-20T10:52:46.380Z,100651.65
2019-01-20T10:57:48.542Z,100656.61
2019-01-20T11:02:50.558Z,100669.78
2019-01-20T11:07:52.697Z,100659.35
2019-01-20T11:12:54.999Z,100666.20
2019-01-20T11:17:56.964Z,100666.52
2019-01-20T11:22:58.974Z,100668.17
2019-01-20T11:28:01.161Z,100666.20
2019-01-20T11:33:03.746Z,100665.59
2019-01-20T11:38:05.823Z,100660.02
2019-01-20T11:43:08.613Z,100666.98
2019-01-20T11:48:10.817Z,100667.53
2019-01-20T11:53:12.926Z,100660.95
2019-01-20T11:58:14.908Z,100670.20
2019-01-20T12:03:16.905Z,100659.28
2019-01-20T12:08:18.930Z,100653.59
2019-01-20T12:13:26.462Z,100645.54
2019-01-20T12:18:28.670Z,100647.53
2019-01-20T12:23:30.563Z,100645.62
2019-01-20T12:28:32.502Z,100654.30
2019-01-20T12:33:34.510Z,100648.38
2019-01-20T12:38:36.443Z,100656.00
2019-01-20T12:43:38.453Z,100656.58
2019-01-20T12:48:40.375Z,100660.59
2019-01-20T12:53:42.419Z,100656.86
2019-01-20T12:58:44.423Z,100656.70
2019-01-20T13:03:47.455Z,100660.20
2019-01-20T13:08:49.386Z,100652.82
2019-01-20T13:13:51.397Z,100651.03
2019-01-20T13:18:53.294Z,100658.09
2019-01-20T13:23:55.276Z,100636.33
2019-01-20T13:38:12.079Z,100650.34
2019-01-20T13:48:14.210Z,100656.88
2019-01-20T13:58:16.764Z,100656.55
2019-01-20T14:08:19.116Z,100650.97
2019-01-20T14:18:21.889Z,100648.34
2019-01-20T14:28:24.215Z,100666.23
2019-01-20T14:38:26.520Z,100664.61
2019-01-20T14:48:28.773Z,100670.50
2019-01-20T14:58:31.109Z,100674.31
2019-01-20T15:08:33.088Z,100696.30
2019-01-20T15:18:35.513Z,100705.72
2019-01-20T15:28:37.804Z,100713.95
2019-01-20T15:38:40.046Z,100721.16
2019-01-20T15:48:42.547Z,100727.86
2019-01-20T15:58:44.713Z,100736.73
2019-01-20T16:08:46.984Z,100743.58
2019-01-20T16:18:49.220Z,100756.38
2019-01-20T16:28:51.612Z,100780.98
2019-01-20T16:38:53.746Z,100789.18
2019-01-20T16:48:55.847Z,100796.72
2019-01-20T16:58:58.199Z,100800.02
2019-01-20T17:09:00.436Z,100807.92
2019-01-20T17:19:02.672Z,100811.26
2019-01-20T17:29:05.100Z,100816.27
2019-01-20T17:39:11.996Z,100827.96
2019-01-20T17:49:13.949Z,100843.60
2019-01-20T17:59:16.456Z,100847.32
2019-01-20T18:09:18.522Z,100858.27
2019-01-20T18:19:20.562Z,100863.46
2019-01-20T18:29:22.927Z,100882.78
2019-01-20T18:39:24.946Z,100886.83
2019-01-20T18:49:26.983Z,100898.45
2019-01-20T18:59:41.695Z,100895.31
2019-01-20T19:09:43.742Z,100906.53
2019-01-20T19:19:45.678Z,100912.17
2019-01-20T19:29:48.897Z,100924.73
2019-01-20T19:39:50.945Z,100942.96
2019-01-20T19:49:52.947Z,100940.67
2019-01-20T19:59:55.065Z,100940.41
2019-01-20T20:09:57.035Z,100954.24
2019-01-20T20:19:58.985Z,100969.44
2019-01-20T20:30:01.114Z,100978.96
2019-01-20T20:40:04.471Z,100987.06
2019-01-20T20:50:08.552Z,100998.14
2019-01-20T21:00:19.743Z,101009.61
2019-01-20T21:10:22.202Z,101007.75
2019-01-20T21:20:24.135Z,101009.45
2019-01-20T21:30:26.388Z,101020.23
2019-01-20T21:40:28.321Z,101022.66
2019-01-20T21:50:30.491Z,101036.67
2019-01-20T22:00:32.712Z,101043.98
2019-01-20T22:10:34.724Z,101045.71
2019-01-20T22:20:36.665Z,101053.66
2019-01-20T22:30:39.776Z,101060.34
2019-01-20T22:40:42.728Z,101064.63
2019-01-20T22:50:44.916Z,101064.89
2019-01-20T23:00:57.263Z,101078.64
2019-01-20T23:11:00.626Z,101083.64
2019-01-20T23:21:02.862Z,101081.72
2019-01-20T23:31:04.859Z,101088.38
2019-01-20T23:41:07.360Z,101094.87
2019-01-20T23:51:09.408Z,101095.45
